Time;durP1;ratioP1;P1;durP2;ratioP2;P2;SDS_P1;SDS_P2;PMS_P1;PMS_P2;Temp;Humidity;BMP_temperature;BMP_pressure;BME280_temperature;BME280_humidity;BME280_pressure;Samples;Min_cycle;Max_cycle;Signal;HPM_P1;HPM_P2
2022/05/16 00:01:10;;;;;;;10.70;1.13;;;19.10;73.80;;;;;;4996871;28;20115;-66
2022/05/16 00:03:36;;;;;;;6.78;1.65;;;19.00;74.20;;;;;;4998388;28;20037;-65
2022/05/16 00:06:01;;;;;;;7.13;1.55;;;19.00;74.20;;;;;;4996622;28;20133;-64
2022/05/16 00:08:27;;;;;;;7.10;1.33;;;18.90;74.60;;;;;;4999201;28;20030;-69
2022/05/16 00:10:53;;;;;;;7.10;1.20;;;18.90;74.70;;;;;;5000293;28;20048;-67
2022/05/16 00:13:20;;;;;;;4.60;1.52;;;18.80;74.60;;;;;;5003169;28;20125;-68
2022/05/16 00:15:46;;;;;;;4.97;1.10;;;18.90;75.00;;;;;;4994168;28;20125;-65
2022/05/16 00:18:12;;;;;;;4.43;1.27;;;18.80;75.00;;;;;;4994945;28;20118;-65
2022/05/16 00:20:37;;;;;;;3.60;1.10;;;18.90;75.00;;;;;;4998799;28;20725;-66
2022/05/16 00:23:03;;;;;;;7.63;1.45;;;18.90;75.20;;;;;;4995554;28;20064;-64
2022/05/16 00:25:28;;;;;;;7.20;1.20;;;18.80;75.30;;;;;;4999733;28;20054;-66
2022/05/16 00:27:54;;;;;;;4.00;1.42;;;18.80;75.50;;;;;;4998526;28;20049;-66
2022/05/16 00:30:20;;;;;;;7.03;1.33;;;18.70;75.70;;;;;;4997342;28;20056;-67
2022/05/16 00:32:48;;;;;;;4.25;1.30;;;18.70;75.90;;;;;;4994998;28;20038;-68
2022/05/16 00:35:15;;;;;;;7.10;1.63;;;18.70;76.00;;;;;;4995933;28;20026;-65
2022/05/16 00:37:41;;;;;;;8.48;1.20;;;18.70;76.40;;;;;;4996826;28;20045;-65
2022/05/16 00:40:09;;;;;;;3.38;1.05;;;18.60;76.30;;;;;;4996106;28;20026;-65
2022/05/16 00:42:34;;;;;;;6.03;1.17;;;18.60;76.70;;;;;;4998119;28;20037;-69
2022/05/16 00:45:00;;;;;;;6.80;1.48;;;18.60;76.70;;;;;;4995990;28;20498;-69
2022/05/16 00:47:25;;;;;;;4.57;1.38;;;18.50;76.80;;;;;;4999279;28;20034;-65
2022/05/16 00:49:53;;;;;;;9.75;1.70;;;18.50;77.20;;;;;;4994776;28;20413;-66
2022/05/16 00:52:20;;;;;;;9.15;1.27;;;18.50;77.20;;;;;;4997853;28;20031;-70
2022/05/16 00:54:57;;;;;;;7.47;1.83;;;18.40;77.30;;;;;;4996331;28;20068;-64
2022/05/16 00:57:31;;;;;;;9.18;1.75;;;18.50;77.60;;;;;;4999143;28;20077;-65
2022/05/16 01:00:19;;;;;;;9.25;1.42;;;18.40;77.40;;;;;;4990456;28;20034;-65
2022/05/16 01:05:41;;;;;;;10.38;1.58;;;18.30;78.10;;;;;;4994666;28;20080;-64
2022/05/16 01:08:11;;;;;;;8.85;1.30;;;18.30;78.20;;;;;;4997466;28;20030;-68
2022/05/16 01:10:37;;;;;;;14.40;1.52;;;18.30;78.50;;;;;;4996367;28;20041;-66
2022/05/16 01:13:04;;;;;;;6.47;1.80;;;18.30;78.50;;;;;;4998192;28;20029;-69
2022/05/16 01:15:41;;;;;;;10.52;1.48;;;18.30;78.50;;;;;;4996147;28;20029;-65
2022/05/16 01:18:09;;;;;;;9.05;1.40;;;18.20;78.70;;;;;;4994384;28;20114;-65
2022/05/16 01:21:02;;;;;;;11.35;1.60;;;18.20;78.90;;;;;;4997888;28;20042;-66
2022/05/16 01:23:33;;;;;;;4.72;1.50;;;18.20;79.10;;;;;;4991145;28;20065;-65
2022/05/16 01:26:00;;;;;;;8.32;1.77;;;18.10;79.10;;;;;;4995867;28;20084;-67
2022/05/16 01:28:26;;;;;;;10.57;1.70;;;18.10;79.20;;;;;;4996303;28;20364;-65
2022/05/16 01:30:54;;;;;;;9.23;1.20;;;18.10;79.40;;;;;;5003020;28;20501;-65
2022/05/16 01:33:23;;;;;;;7.78;1.65;;;18.10;79.50;;;;;;4994423;28;20045;-71
2022/05/16 01:35:48;;;;;;;6.00;1.08;;;18.10;79.60;;;;;;4998151;28;20092;-65
2022/05/16 01:38:18;;;;;;;6.22;1.13;;;18.00;79.90;;;;;;4996337;28;20453;-65
2022/05/16 01:40:50;;;;;;;6.97;1.93;;;18.00;80.00;;;;;;4995438;28;20475;-65
2022/05/16 01:43:17;;;;;;;5.10;1.38;;;18.00;80.20;;;;;;4996182;28;20771;-64
2022/05/16 01:45:44;;;;;;;4.97;1.25;;;18.00;80.30;;;;;;4996630;28;20031;-65
2022/05/16 01:48:12;;;;;;;3.75;1.20;;;18.00;80.40;;;;;;4995348;28;20046;-65
2022/05/16 01:50:38;;;;;;;7.47;1.23;;;17.90;80.60;;;;;;4999835;28;20030;-65
2022/05/16 01:53:04;;;;;;;10.75;1.38;;;17.90;80.70;;;;;;5000270;28;20434;-65
2022/05/16 01:55:30;;;;;;;4.47;1.10;;;17.90;80.80;;;;;;4998893;28;20061;-66
2022/05/16 01:57:56;;;;;;;8.80;1.63;;;17.90;81.10;;;;;;4998318;28;20034;-65
2022/05/16 02:00:22;;;;;;;5.93;1.55;;;17.90;81.20;;;;;;4996734;28;20483;-67
2022/05/16 02:02:48;;;;;;;4.78;1.15;;;17.90;81.20;;;;;;5007276;28;20088;-66
2022/05/16 02:05:16;;;;;;;11.63;1.48;;;17.90;81.20;;;;;;4999333;28;20033;-65
2022/05/16 02:07:42;;;;;;;5.22;1.30;;;17.80;81.50;;;;;;5000328;28;20034;-67
2022/05/16 02:10:09;;;;;;;5.32;1.50;;;17.80;81.70;;;;;;4999639;28;20041;-65
2022/05/16 02:12:36;;;;;;;6.30;1.50;;;17.80;81.90;;;;;;4998960;28;20030;-66
2022/05/16 02:15:04;;;;;;;6.47;1.10;;;17.70;82.10;;;;;;5000140;28;20092;-67
2022/05/16 02:17:29;;;;;;;10.20;1.45;;;17.70;82.20;;;;;;4998473;28;20038;-65
2022/05/16 02:19:55;;;;;;;4.75;1.20;;;17.70;82.90;;;;;;4997715;28;20112;-68
2022/05/16 02:25:05;;;;;;;7.15;1.42;;;17.60;82.80;;;;;;4995060;28;20177;-65
2022/05/16 02:27:31;;;;;;;10.05;1.85;;;17.50;83.10;;;;;;4997820;28;20046;-67
2022/05/16 02:29:57;;;;;;;3.53;1.20;;;17.50;83.20;;;;;;5000807;28;20707;-65
2022/05/16 02:32:23;;;;;;;12.30;1.73;;;17.50;83.30;;;;;;4996440;28;20050;-65
2022/05/16 02:34:49;;;;;;;7.50;1.52;;;17.50;83.40;;;;;;5001242;28;20057;-65
2022/05/16 02:37:15;;;;;;;8.43;1.63;;;17.50;83.60;;;;;;4998818;28;20418;-68
2022/05/16 02:39:44;;;;;;;3.35;1.10;;;17.30;84.00;;;;;;5000039;28;20042;-66
2022/05/16 02:42:11;;;;;;;10.85;1.52;;;17.40;84.70;;;;;;4998914;28;20041;-68
2022/05/16 02:44:38;;;;;;;7.53;2.35;;;17.40;84.30;;;;;;4998480;28;20038;-67
2022/05/16 02:47:05;;;;;;;4.65;1.35;;;17.40;84.20;;;;;;4999305;28;20056;-65
2022/05/16 02:49:31;;;;;;;6.15;1.02;;;17.40;84.30;;;;;;4996323;28;20090;-66
2022/05/16 02:51:57;;;;;;;5.28;1.20;;;17.30;84.40;;;;;;5000315;28;20056;-66
2022/05/16 02:54:23;;;;;;;5.43;1.50;;;17.30;84.60;;;;;;4997578;28;20542;-65
2022/05/16 02:56:48;;;;;;;9.70;1.50;;;17.20;84.90;;;;;;4999951;28;20030;-64
2022/05/16 02:59:14;;;;;;;10.73;1.65;;;17.30;84.80;;;;;;4998480;28;20495;-69
2022/05/16 03:01:40;;;;;;;9.10;1.70;;;17.20;85.10;;;;;;4998937;28;20033;-65
2022/05/16 03:04:05;;;;;;;4.68;1.10;;;17.20;85.00;;;;;;4998389;28;20034;-67
2022/05/16 03:06:31;;;;;;;4.72;1.38;;;17.30;85.10;;;;;;4998975;28;20046;-64
2022/05/16 03:08:56;;;;;;;4.22;1.23;;;17.30;85.20;;;;;;4996256;28;20499;-70
2022/05/16 03:11:22;;;;;;;7.43;1.50;;;17.30;85.30;;;;;;4999212;28;20034;-66
2022/05/16 03:13:49;;;;;;;6.70;2.00;;;17.30;85.30;;;;;;4996669;28;20034;-66
2022/05/16 03:16:15;;;;;;;6.65;1.50;;;17.20;85.70;;;;;;5002792;28;20151;-66
2022/05/16 03:18:41;;;;;;;10.88;1.85;;;17.20;85.70;;;;;;5001024;28;20128;-65
2022/05/16 03:21:06;;;;;;;5.38;1.45;;;17.20;86.10;;;;;;5002078;28;20102;-66
2022/05/16 03:23:32;;;;;;;5.65;1.77;;;17.10;86.30;;;;;;4998457;28;20042;-65
2022/05/16 03:25:58;;;;;;;5.05;1.40;;;17.10;86.40;;;;;;4997219;28;20517;-66
2022/05/16 03:28:25;;;;;;;6.90;1.40;;;17.10;86.50;;;;;;5000972;28;20092;-65
2022/05/16 03:30:53;;;;;;;4.72;1.00;;;17.10;86.40;;;;;;4995710;28;20034;-67
2022/05/16 03:33:19;;;;;;;5.70;1.60;;;17.20;86.30;;;;;;4996963;28;20044;-65
2022/05/16 03:35:45;;;;;;;4.50;1.20;;;17.20;86.60;;;;;;5000483;28;20022;-65
2022/05/16 03:40:41;;;;;;;7.88;1.90;;;17.10;86.90;;;;;;5005132;28;20544;-65
2022/05/16 03:40:57;;;;;;;6.13;1.02;;;17.10;86.90;;;;;;4994842;28;20128;-65
2022/05/16 03:43:22;;;;;;;7.93;1.55;;;17.10;87.00;;;;;;4999046;28;20486;-66
2022/05/16 03:45:49;;;;;;;6.43;1.20;;;17.10;87.30;;;;;;4996864;28;20058;-66
2022/05/16 03:48:14;;;;;;;2.83;1.20;;;17.00;87.50;;;;;;4996501;28;20034;-70
2022/05/16 03:50:40;;;;;;;5.25;1.45;;;17.10;87.70;;;;;;4998768;28;20049;-70
2022/05/16 03:53:06;;;;;;;6.38;1.67;;;17.10;87.40;;;;;;4995411;28;20129;-64
2022/05/16 03:55:32;;;;;;;7.28;1.20;;;17.10;87.50;;;;;;4998361;28;20045;-65
2022/05/16 03:57:58;;;;;;;5.70;1.50;;;17.00;88.20;;;;;;4997306;28;20057;-65
2022/05/16 04:00:24;;;;;;;6.85;1.70;;;17.00;88.00;;;;;;4996429;28;20057;-65
2022/05/16 04:02:50;;;;;;;5.95;1.75;;;17.00;88.30;;;;;;4995034;28;20117;-65
2022/05/16 04:05:20;;;;;;;7.72;1.88;;;16.90;88.50;;;;;;4998983;28;20038;-65
2022/05/16 04:07:47;;;;;;;7.32;1.80;;;16.90;89.00;;;;;;4992488;28;20066;-65
2022/05/16 04:10:14;;;;;;;7.05;1.55;;;16.90;89.40;;;;;;4993177;28;20069;-65
2022/05/16 04:12:40;;;;;;;7.85;1.73;;;16.90;89.60;;;;;;4994267;28;20061;-67
2022/05/16 04:15:07;;;;;;;4.40;1.90;;;16.80;89.80;;;;;;4995198;28;20034;-66
2022/05/16 04:17:34;;;;;;;7.70;1.80;;;16.80;89.90;;;;;;4996745;28;20570;-65
2022/05/16 04:20:00;;;;;;;5.80;1.55;;;16.80;90.10;;;;;;4994357;28;20037;-64
2022/05/16 04:22:25;;;;;;;7.63;1.60;;;16.80;90.30;;;;;;4997282;28;20034;-70
2022/05/16 04:24:51;;;;;;;7.75;1.63;;;16.80;90.40;;;;;;4996061;28;20049;-66
2022/05/16 04:27:16;;;;;;;9.60;1.77;;;16.70;90.40;;;;;;4995519;28;20030;-65
2022/05/16 04:29:42;;;;;;;10.70;2.40;;;16.80;90.60;;;;;;4995447;28;20559;-65
2022/05/16 04:32:08;;;;;;;4.88;1.52;;;16.90;90.40;;;;;;4991929;28;20096;-65
2022/05/16 04:34:33;;;;;;;9.40;2.15;;;16.90;90.60;;;;;;4993510;28;20035;-66
2022/05/16 04:36:59;;;;;;;10.43;1.70;;;17.00;90.50;;;;;;4988091;28;20489;-66
2022/05/16 04:39:24;;;;;;;6.50;2.33;;;16.90;90.70;;;;;;4995374;28;20084;-64
2022/05/16 04:44:38;;;;;;;5.38;1.50;;;16.90;91.10;;;;;;4983482;28;20120;-65
2022/05/16 04:47:05;;;;;;;6.80;1.60;;;16.80;91.10;;;;;;4995962;28;20038;-68
2022/05/16 04:49:31;;;;;;;6.50;1.42;;;16.90;91.10;;;;;;4997115;28;20037;-69
2022/05/16 04:51:56;;;;;;;10.38;2.00;;;16.90;91.20;;;;;;4996748;28;20034;-67
2022/05/16 04:54:22;;;;;;;4.40;1.67;;;16.90;91.20;;;;;;4982304;28;20037;-67
2022/05/16 04:56:49;;;;;;;12.07;1.67;;;16.90;91.40;;;;;;4985751;28;20072;-66
2022/05/16 04:59:15;;;;;;;5.07;1.60;;;16.90;91.60;;;;;;4985426;28;20049;-68
2022/05/16 05:01:41;;;;;;;5.20;1.88;;;16.90;91.50;;;;;;4985817;28;20042;-69
2022/05/16 05:04:07;;;;;;;8.32;1.75;;;16.90;91.50;;;;;;4982333;28;20064;-71
2022/05/16 05:06:33;;;;;;;6.55;2.05;;;17.00;91.50;;;;;;4987154;28;20043;-67
2022/05/16 05:08:58;;;;;;;5.90;1.92;;;17.00;91.70;;;;;;4987323;28;20397;-64
2022/05/16 05:16:52;;;;;;;9.88;1.83;;;17.40;91.20;;;;;;4980713;28;20505;-65
2022/05/16 05:19:18;;;;;;;4.97;1.52;;;17.70;90.80;;;;;;4984994;28;20034;-65
2022/05/16 05:21:43;;;;;;;4.72;1.50;;;17.80;91.00;;;;;;4983413;28;20042;-65
2022/05/16 05:24:09;;;;;;;6.55;2.00;;;18.00;90.50;;;;;;4989288;28;20037;-67
2022/05/16 05:26:35;;;;;;;6.50;1.65;;;18.10;90.30;;;;;;4990582;28;20372;-66
2022/05/16 05:29:01;;;;;;;8.45;1.42;;;18.30;90.00;;;;;;4996853;28;20037;-67
2022/05/16 05:31:26;;;;;;;7.28;2.38;;;18.50;90.00;;;;;;4987238;28;20406;-69
2022/05/16 05:33:55;;;;;;;10.77;2.22;;;18.60;89.20;;;;;;4985884;28;20049;-65
2022/05/16 05:36:21;;;;;;;8.32;1.70;;;18.90;88.80;;;;;;4991063;28;20038;-67
2022/05/16 05:38:51;;;;;;;4.55;1.42;;;19.10;88.20;;;;;;4990411;28;20042;-65
2022/05/16 05:41:19;;;;;;;10.00;2.03;;;19.30;87.50;;;;;;4988330;28;20053;-71
2022/05/16 05:43:44;;;;;;;5.95;1.80;;;19.70;86.70;;;;;;4986463;28;20093;-66
2022/05/16 05:46:10;;;;;;;10.93;1.98;;;19.80;87.40;;;;;;4988729;28;20033;-65
2022/05/16 05:48:35;;;;;;;10.13;1.98;;;20.00;86.70;;;;;;4989208;28;20034;-66
2022/05/16 05:51:01;;;;;;;6.88;1.67;;;20.00;86.80;;;;;;4987254;28;20042;-66
2022/05/16 05:53:27;;;;;;;9.20;2.30;;;20.30;85.10;;;;;;4987598;28;20050;-69
2022/05/16 05:55:53;;;;;;;5.03;1.20;;;20.30;84.70;;;;;;4987012;28;20069;-66
2022/05/16 05:58:19;;;;;;;7.90;1.95;;;20.40;84.20;;;;;;4986756;28;20533;-66
2022/05/16 06:00:46;;;;;;;5.15;1.75;;;20.60;85.20;;;;;;4988189;28;20054;-66
2022/05/16 06:03:12;;;;;;;5.28;1.98;;;21.40;82.80;;;;;;4985002;28;20514;-66
2022/05/16 06:05:38;;;;;;;9.65;2.53;;;21.80;80.30;;;;;;4990899;28;20035;-66
2022/05/16 06:08:04;;;;;;;9.38;2.53;;;21.80;79.90;;;;;;4986551;28;20030;-66
2022/05/16 06:10:30;;;;;;;4.90;2.13;;;21.40;80.10;;;;;;4989494;28;20839;-66
2022/05/16 06:12:55;;;;;;;7.85;2.28;;;21.10;81.40;;;;;;4989342;28;20035;-66
2022/05/16 06:15:22;;;;;;;9.23;2.33;;;20.70;82.30;;;;;;4986581;28;20046;-66
2022/05/16 06:17:48;;;;;;;5.28;1.48;;;20.50;83.60;;;;;;4987324;28;20434;-66
2022/05/16 06:20:14;;;;;;;10.70;2.83;;;20.20;84.80;;;;;;4988958;28;20529;-66
2022/05/16 06:22:40;;;;;;;5.32;2.38;;;20.00;86.20;;;;;;4988665;28;20568;-66
2022/05/16 06:27:54;;;;;;;8.38;2.70;;;19.90;86.90;;;;;;4984885;28;20061;-66
2022/05/16 06:30:20;;;;;;;6.97;2.50;;;19.90;87.30;;;;;;4987206;28;20720;-66
2022/05/16 06:32:47;;;;;;;4.80;1.70;;;19.90;87.00;;;;;;4987081;28;20791;-66
2022/05/16 06:35:13;;;;;;;6.63;1.98;;;19.70;87.40;;;;;;4981805;28;20031;-66
2022/05/16 06:37:39;;;;;;;2.83;1.70;;;19.60;87.60;;;;;;4986928;28;20103;-66
2022/05/16 06:40:05;;;;;;;7.95;2.30;;;19.50;88.10;;;;;;4982224;28;20034;-65
2022/05/16 06:42:31;;;;;;;5.10;2.28;;;19.50;89.30;;;;;;4983219;28;20416;-66
2022/05/16 06:44:56;;;;;;;6.15;2.05;;;19.50;90.10;;;;;;4983035;28;20050;-66
2022/05/16 06:47:23;;;;;;;8.25;2.40;;;19.30;90.30;;;;;;4984466;28;20042;-66
2022/05/16 06:49:49;;;;;;;5.53;1.75;;;19.20;90.90;;;;;;4991086;28;20513;-66
2022/05/16 06:52:16;;;;;;;13.00;2.50;;;19.20;91.30;;;;;;4984744;28;20038;-66
2022/05/16 06:54:42;;;;;;;8.80;1.95;;;19.20;91.60;;;;;;4986212;28;20042;-67
2022/05/16 06:57:08;;;;;;;7.22;2.00;;;19.10;92.00;;;;;;4984610;28;20054;-68
2022/05/16 06:59:34;;;;;;;6.05;2.55;;;19.00;92.20;;;;;;4986887;28;20923;-66
2022/05/16 07:02:00;;;;;;;5.32;2.38;;;19.00;92.10;;;;;;4988815;28;20414;-65
2022/05/16 07:04:26;;;;;;;10.27;1.90;;;19.00;92.40;;;;;;4983247;28;20046;-66
2022/05/16 07:06:51;;;;;;;6.90;2.53;;;19.10;92.20;;;;;;4988231;28;20486;-66
2022/05/16 07:09:18;;;;;;;12.02;2.35;;;19.10;92.40;;;;;;4983930;28;20034;-66
2022/05/16 07:11:43;;;;;;;6.18;2.10;;;19.10;92.20;;;;;;4988105;28;20072;-65
2022/05/16 07:14:09;;;;;;;13.77;2.67;;;19.10;92.10;;;;;;4980993;28;20039;-66
2022/05/16 07:16:34;;;;;;;7.63;2.15;;;19.10;92.30;;;;;;4990547;28;20030;-67
2022/05/16 07:19:01;;;;;;;6.65;2.42;;;19.00;92.40;;;;;;4983413;28;20053;-65
2022/05/16 07:21:27;;;;;;;9.43;2.08;;;19.10;92.10;;;;;;4982289;28;20037;-66
2022/05/16 07:23:53;;;;;;;5.30;2.20;;;19.10;92.00;;;;;;4987418;28;20037;-66
2022/05/16 07:29:03;;;;;;;6.30;2.50;;;19.20;92.10;;;;;;4983998;28;20039;-66
2022/05/16 07:31:29;;;;;;;9.98;2.28;;;19.30;91.70;;;;;;4984278;28;20038;-66
2022/05/16 07:33:54;;;;;;;4.30;2.10;;;19.40;92.00;;;;;;4980077;28;20363;-66
2022/05/16 07:36:20;;;;;;;12.32;3.28;;;19.50;91.90;;;;;;4983235;28;20034;-66
2022/05/16 07:38:45;;;;;;;6.95;2.60;;;19.60;91.60;;;;;;4982043;28;20060;-66
2022/05/16 07:41:11;;;;;;;8.52;2.40;;;19.70;91.50;;;;;;4982723;28;20053;-66
2022/05/16 07:43:37;;;;;;;5.70;2.17;;;19.80;91.40;;;;;;4979682;28;20081;-67
2022/05/16 07:46:06;;;;;;;5.60;1.95;;;19.90;91.30;;;;;;4989539;28;20035;-66
2022/05/16 07:48:32;;;;;;;10.77;2.55;;;19.90;91.60;;;;;;4983190;28;20077;-66
2022/05/16 07:50:57;;;;;;;5.95;2.17;;;20.10;91.30;;;;;;4984857;28;20038;-65
2022/05/16 07:53:23;;;;;;;6.88;2.33;;;20.20;91.30;;;;;;4982154;28;22216;-66
2022/05/16 07:55:51;;;;;;;7.80;2.13;;;20.50;91.20;;;;;;4983327;28;20038;-66
2022/05/16 07:58:20;;;;;;;7.97;2.28;;;20.70;91.60;;;;;;4982674;28;20034;-67
2022/05/16 08:00:45;;;;;;;6.55;1.90;;;21.00;90.30;;;;;;4979765;28;20031;-66
2022/05/16 08:03:13;;;;;;;6.13;2.33;;;21.20;89.30;;;;;;4980605;28;20222;-66
2022/05/16 08:05:39;;;;;;;7.90;2.13;;;21.40;89.10;;;;;;4983001;28;20046;-67
2022/05/16 08:10:49;;;;;;;4.90;2.20;;;21.70;89.60;;;;;;4979870;28;20089;-66
2022/05/16 08:13:14;;;;;;;4.80;2.05;;;21.80;89.40;;;;;;4981779;28;20038;-67
2022/05/16 08:15:41;;;;;;;9.07;2.60;;;21.90;89.90;;;;;;4983077;28;20030;-66
2022/05/16 08:18:09;;;;;;;4.38;2.22;;;21.90;90.30;;;;;;4979973;28;20490;-66
2022/05/16 08:20:37;;;;;;;6.57;2.33;;;21.90;89.60;;;;;;4984428;28;20490;-67
2022/05/16 08:23:04;;;;;;;15.85;2.85;;;22.00;88.60;;;;;;4982606;28;20034;-67
2022/05/16 08:25:30;;;;;;;5.65;2.25;;;22.00;88.40;;;;;;4986020;28;20045;-66
2022/05/16 08:27:56;;;;;;;9.38;2.35;;;22.00;88.70;;;;;;4983950;28;21350;-65
2022/05/16 08:30:23;;;;;;;7.78;2.03;;;21.90;88.60;;;;;;4985712;28;20042;-66
2022/05/16 08:32:50;;;;;;;5.57;1.63;;;21.90;89.80;;;;;;4985236;28;20111;-66
2022/05/16 08:35:18;;;;;;;6.47;1.98;;;21.90;90.10;;;;;;4982725;28;20034;-66
2022/05/16 08:40:53;;;;;;;11.05;2.33;;;21.80;90.30;;;;;;4985975;28;20684;-66
2022/05/16 08:43:40;;;;;;;9.48;2.45;;;22.20;90.60;;;;;;4980630;28;20131;-66
2022/05/16 08:46:25;;;;;;;7.78;2.50;;;22.60;89.50;;;;;;4979551;28;21458;-68
2022/05/16 08:48:57;;;;;;;9.00;2.38;;;22.90;88.70;;;;;;4982451;28;20487;-66
2022/05/16 08:51:26;;;;;;;8.90;2.83;;;23.20;87.80;;;;;;4982759;28;20035;-66
2022/05/16 08:54:12;;;;;;;6.78;2.22;;;23.70;88.10;;;;;;4982393;28;20088;-66
2022/05/16 08:56:42;;;;;;;6.30;2.10;;;24.00;85.40;;;;;;4985120;28;20038;-66
2022/05/16 08:59:11;;;;;;;5.72;1.90;;;24.30;86.00;;;;;;4981298;28;20501;-67
2022/05/16 09:01:44;;;;;;;7.38;2.13;;;24.40;85.10;;;;;;4984522;28;20796;-66
2022/05/16 09:04:35;;;;;;;4.57;1.77;;;24.50;84.00;;;;;;4979121;28;20038;-67
2022/05/16 09:07:15;;;;;;;7.32;2.28;;;24.60;85.20;;;;;;4975630;28;20038;-66
2022/05/16 09:09:47;;;;;;;11.02;2.80;;;24.70;84.80;;;;;;4985322;28;20081;-66
2022/05/16 09:12:24;;;;;;;10.35;2.25;;;24.70;84.90;;;;;;4981098;28;20491;-66
2022/05/16 09:15:04;;;;;;;5.30;1.85;;;24.80;85.30;;;;;;4981730;28;20038;-67
2022/05/16 09:17:48;;;;;;;;;;;24.90;84.80;;;;;;4979534;28;20054;-66
2022/05/16 09:20:51;;;;;;;5.10;2.17;;;25.00;84.60;;;;;;4984020;28;19933;-67
2022/05/16 09:23:50;;;;;;;8.48;2.20;;;25.20;85.40;;;;;;4980849;28;20049;-66
2022/05/16 09:26:22;;;;;;;5.50;2.10;;;25.20;83.40;;;;;;4981589;28;20097;-66
2022/05/16 09:29:00;;;;;;;4.35;1.88;;;25.20;84.70;;;;;;4985027;28;20113;-66
2022/05/16 09:31:30;;;;;;;4.68;2.00;;;25.20;83.80;;;;;;4981141;28;20779;-67
2022/05/16 09:33:59;;;;;;;8.65;2.92;;;25.40;82.90;;;;;;4978793;28;22882;-66
2022/05/16 09:36:36;;;;;;;6.90;2.35;;;25.50;83.80;;;;;;4984971;28;20117;-66
2022/05/16 09:39:05;;;;;;;6.15;1.95;;;25.60;81.60;;;;;;4982436;28;20092;-66
2022/05/16 09:41:51;;;;;;;3.70;1.90;;;25.70;82.80;;;;;;4984716;28;20495;-67
2022/05/16 09:44:29;;;;;;;13.38;2.13;;;25.80;82.40;;;;;;4983056;28;20078;-67
2022/05/16 09:47:15;;;;;;;4.85;1.77;;;26.00;84.60;;;;;;4986779;28;20057;-66
2022/05/16 09:49:42;;;;;;;3.50;1.52;;;26.30;82.30;;;;;;4981315;28;20043;-66
2022/05/16 09:52:15;;;;;;;4.05;1.40;;;26.60;80.50;;;;;;4985046;28;20038;-68
2022/05/16 09:54:41;;;;;;;6.80;1.52;;;26.80;81.40;;;;;;4983352;28;20058;-66
2022/05/16 09:57:16;;;;;;;3.58;1.48;;;27.00;79.60;;;;;;4989043;28;20053;-66
2022/05/16 09:59:55;;;;;;;7.50;1.77;;;27.00;79.20;;;;;;4988759;28;20073;-67
2022/05/16 10:02:31;;;;;;;4.47;1.80;;;26.90;80.50;;;;;;4989385;28;20049;-66
2022/05/16 10:05:21;;;;;;;2.50;1.70;;;26.80;80.90;;;;;;4981113;28;20053;-66
2022/05/16 10:07:48;;;;;;;;;;;27.00;81.40;;;;;;4979020;28;20034;-66
2022/05/16 10:10:24;;;;;;;5.80;1.67;;;27.10;80.30;;;;;;4986882;28;20024;-66
2022/05/16 10:12:53;;;;;;;4.63;1.88;;;27.10;80.90;;;;;;4991766;28;20040;-66
2022/05/16 10:15:19;;;;;;;8.45;1.80;;;27.20;80.50;;;;;;4982868;28;20072;-66
2022/05/16 10:17:47;;;;;;;6.68;1.90;;;27.30;81.00;;;;;;4989846;28;20042;-66
2022/05/16 10:20:42;;;;;;;4.47;1.88;;;27.30;81.60;;;;;;4990622;28;20038;-67
2022/05/16 10:23:13;;;;;;;5.45;1.95;;;27.40;81.10;;;;;;4981891;28;20806;-71
2022/05/16 10:25:43;;;;;;;4.88;1.83;;;27.60;80.90;;;;;;4982342;28;20038;-67
2022/05/16 10:28:12;;;;;;;;;;;28.10;81.60;;;;;;4989103;28;20031;-67
2022/05/16 10:33:29;;;;;;;3.60;1.60;;;28.20;79.70;;;;;;4988933;28;20092;-66
2022/05/16 10:36:09;;;;;;;5.45;1.15;;;27.90;79.90;;;;;;4983520;28;20058;-67
2022/05/16 10:38:56;;;;;;;7.35;1.30;;;27.50;79.30;;;;;;4991496;28;20084;-67
2022/05/16 10:41:32;;;;;;;6.07;1.67;;;27.00;80.20;;;;;;4982091;28;20066;-67
2022/05/16 10:44:20;;;;;;;7.10;1.25;;;26.50;81.30;;;;;;4982201;28;20049;-67
2022/05/16 10:47:01;;;;;;;5.28;1.27;;;26.00;82.60;;;;;;4984272;28;20035;-68
2022/05/16 10:49:35;;;;;;;4.82;1.23;;;25.60;86.20;;;;;;4981105;28;20034;-68
2022/05/16 10:52:21;;;;;;;5.15;1.33;;;25.00;88.10;;;;;;4992977;28;20042;-67
2022/05/16 10:54:47;;;;;;;13.65;2.13;;;24.60;91.50;;;;;;4976869;28;20049;-70
2022/05/16 10:57:55;;;;;;;10.43;1.50;;;23.80;95.10;;;;;;4988195;28;20410;-66
2022/05/16 11:00:33;;;;;;;9.98;1.30;;;22.90;97.30;;;;;;4987025;28;20046;-68
2022/05/16 11:03:29;;;;;;;5.72;1.83;;;21.90;99.70;;;;;;4984049;28;20038;-67
2022/05/16 11:06:03;;;;;;;5.63;1.65;;;21.20;99.90;;;;;;4989046;28;20046;-66
2022/05/16 11:08:46;;;;;;;9.50;2.30;;;20.60;99.90;;;;;;4987526;28;20177;-70
2022/05/16 11:11:36;;;;;;;12.70;2.75;;;20.30;99.90;;;;;;4984284;28;20049;-68
2022/05/16 11:14:21;;;;;;;6.47;2.63;;;20.00;99.90;;;;;;4981649;28;20044;-68
2022/05/16 11:16:50;;;;;;;5.57;2.50;;;19.90;99.90;;;;;;4987249;28;20050;-68
2022/05/16 11:19:31;;;;;;;11.20;2.45;;;19.90;99.90;;;;;;4983416;28;20057;-68
2022/05/16 11:22:31;;;;;;;3.75;1.67;;;19.80;99.90;;;;;;4988197;28;20042;-70
2022/05/16 11:25:25;;;;;;;9.43;2.45;;;19.80;99.90;;;;;;4990504;28;20486;-68
2022/05/16 11:28:04;;;;;;;7.07;2.55;;;19.90;99.90;;;;;;4985082;28;20068;-71
2022/05/16 11:30:35;;;;;;;8.60;2.42;;;20.10;99.90;;;;;;4985544;28;20118;-70
2022/05/16 11:33:05;;;;;;;8.95;2.25;;;20.30;99.90;;;;;;4983072;28;20046;-68
2022/05/16 11:35:43;;;;;;;6.50;2.58;;;20.50;99.90;;;;;;4987633;28;20387;-72
2022/05/16 11:38:41;;;;;;;5.38;2.30;;;20.60;99.90;;;;;;4992759;28;20145;-69
2022/05/16 11:41:28;;;;;;;4.95;2.20;;;20.70;99.90;;;;;;4989751;28;20404;-65
2022/05/16 11:44:20;;;;;;;8.55;2.70;;;20.80;99.90;;;;;;4979853;28;20046;-67
2022/05/16 11:46:55;;;;;;;6.65;2.28;;;20.80;99.90;;;;;;4985150;28;20557;-67
2022/05/16 11:49:55;;;;;;;11.98;3.05;;;20.90;99.90;;;;;;4983263;28;20061;-70
2022/05/16 11:52:26;;;;;;;4.93;2.70;;;20.90;99.90;;;;;;4988052;28;20034;-70
2022/05/16 12:00:31;;;;;;;8.27;3.90;;;20.90;99.90;;;;;;4984037;28;20113;-66
2022/05/16 12:00:59;;;;;;;11.77;3.67;;;21.10;99.90;;;;;;4988616;28;20497;-70
2022/05/16 12:03:40;;;;;;;12.05;5.03;;;21.30;99.90;;;;;;4985914;28;20042;-65
2022/05/16 12:06:36;;;;;;;15.52;5.88;;;21.40;99.90;;;;;;4995306;28;20038;-69
2022/05/16 12:09:19;;;;;;;16.15;5.65;;;21.20;99.90;;;;;;4985335;28;20042;-67
2022/05/16 12:11:56;;;;;;;15.23;5.88;;;21.10;99.90;;;;;;4983684;28;20041;-68
2022/05/16 12:14:29;;;;;;;7.97;4.65;;;21.10;99.90;;;;;;4992215;28;20053;-69
2022/05/16 12:16:58;;;;;;;10.48;5.15;;;21.00;99.90;;;;;;4992355;28;20122;-66
2022/05/16 12:19:29;;;;;;;11.32;4.75;;;21.00;99.90;;;;;;4991739;28;20061;-65
2022/05/16 12:22:06;;;;;;;6.65;3.65;;;21.00;99.90;;;;;;4988813;28;20053;-65
2022/05/16 12:24:53;;;;;;;8.20;3.67;;;21.10;99.90;;;;;;4989662;28;20038;-65
2022/05/16 12:27:29;;;;;;;9.20;2.72;;;21.30;99.90;;;;;;4997450;28;20031;-69
2022/05/16 12:30:02;;;;;;;8.82;3.90;;;21.30;99.90;;;;;;4990979;28;20050;-69
2022/05/16 12:32:30;;;;;;;6.80;3.65;;;21.30;99.90;;;;;;4988781;28;20030;-67
2022/05/16 12:35:12;;;;;;;9.45;3.15;;;21.20;99.90;;;;;;4988947;28;20054;-66
2022/05/16 12:37:38;;;;;;;9.93;3.13;;;21.10;99.90;;;;;;4989474;28;20113;-65
2022/05/16 12:40:25;;;;;;;13.27;4.13;;;21.10;99.90;;;;;;4993522;28;20037;-68
2022/05/16 12:43:17;;;;;;;11.98;3.45;;;21.10;99.90;;;;;;4982371;28;20587;-66
2022/05/16 12:45:55;;;;;;;12.82;3.92;;;21.00;99.90;;;;;;4986819;28;20042;-65
2022/05/16 12:48:49;;;;;;;8.32;3.30;;;21.10;99.90;;;;;;4990300;28;20041;-67
2022/05/16 12:51:24;;;;;;;13.88;3.50;;;21.10;99.90;;;;;;4963364;28;20573;-65
2022/05/16 12:54:16;;;;;;;13.32;3.53;;;21.20;99.90;;;;;;4980271;28;20045;-66
2022/05/16 12:57:19;;;;;;;13.50;4.05;;;21.20;99.90;;;;;;4967924;28;20069;-65
2022/05/16 12:59:56;;;;;;;12.05;4.00;;;21.30;99.90;;;;;;4973978;28;20045;-65
2022/05/16 13:02:51;;;;;;;11.95;4.75;;;21.60;99.90;;;;;;4999538;28;20045;-67
2022/05/16 13:05:35;;;;;;;9.95;4.10;;;21.80;99.90;;;;;;4991176;28;20046;-67
2022/05/16 13:08:25;;;;;;;14.02;5.72;;;21.90;99.90;;;;;;4984824;28;20459;-66
2022/05/16 13:10:59;;;;;;;10.68;4.97;;;22.00;99.90;;;;;;4981652;28;20519;-65
2022/05/16 13:13:44;;;;;;;9.25;4.47;;;22.00;99.90;;;;;;4985001;28;20045;-67
2022/05/16 13:16:28;;;;;;;16.02;4.60;;;22.00;99.90;;;;;;4990341;28;20045;-68
2022/05/16 13:19:10;;;;;;;10.07;4.60;;;22.10;99.90;;;;;;4988015;28;20042;-68
2022/05/16 13:21:46;;;;;;;14.18;4.40;;;22.10;99.90;;;;;;4982717;28;20117;-65
2022/05/16 13:24:14;;;;;;;9.75;4.07;;;22.10;99.90;;;;;;4986991;28;20045;-64
2022/05/16 13:29:35;;;;;;;8.43;3.58;;;22.00;99.90;;;;;;4974630;28;20085;-67
2022/05/16 13:32:12;;;;;;;7.18;2.70;;;21.90;99.90;;;;;;4988179;28;20085;-70
2022/05/16 13:34:48;;;;;;;9.85;3.30;;;21.90;99.90;;;;;;4992351;28;20125;-67
2022/05/16 13:37:23;;;;;;;8.20;2.25;;;21.90;99.90;;;;;;4984858;28;20035;-65
2022/05/16 13:39:54;;;;;;;10.55;2.88;;;22.10;99.90;;;;;;4982514;28;20046;-65